Aérodrome :
LOGIN :

S'inscrire | Disclaimer

   EN    FR    IT 

 










Légende :    VFR   VFR Marginal   IFR   IFR Intensif   IFR Très Intensif
Visi : 
Plafond : 
>= 8 km
>= 3000ft
5 à 8 km
1000 à 3000 ft
1500m à 5 km
500 à 1000 ft
800 à 1500m
200 à 500 ft
< 800m
< 200 ft
Symboles :   Orages  Brouillard  Fortes neiges  Fortes précipitations  Vent > 20 kt
SIGMETs :   Divers  Orages  Givrage  Turbulence  Onde Orograph.  Cendres Volcan.







- Altitude de l'aérodrome : 56 ft
- Code IATA : BZR
- Voir les cartes d'approche


LFMU - Beziers / Vias

DERNIER METAR :
  • 262200Z AUTO 06001KT 9999 FEW010 17/16 Q1017

METARs EXPIRÉS :
  • 262130Z AUTO 08006KT CAVOK 18/16 Q1017
  • 262100Z AUTO 08003KT CAVOK 18/16 Q1017
  • 262030Z AUTO 08004KT 9999 FEW011 18/15 Q1017 TEMPO 3000 BR BKN005
  • 262000Z AUTO 10004KT 070V130 9999 SCT012 19/16 Q1017 TEMPO 3000 BR BKN005
  • 261930Z AUTO 12005KT 100V160 9999 OVC012 20/16 Q1017 TEMPO 3000 BR BKN005

TAF TAF LFMU
Valide du 26 à 15h jusqu'au 27 à 15h UTC


261400Z 2615/2715 15008KT CAVOK
BECMG 2619/2621 BKN012
TEMPO 2621/2706 3000 BR BKN005
BECMG 2709/2711 CAVOK
ATIS : +33 4 67 90 88 88
Pas de NOTAMs connus pour ce terrain.



MET'MAP, la Météo Aéronautique d'un coup d'oeil ! - Copyright ORBIFLY Décembre 2007 - Disclaimer

ORBIFLY MET'MAP TEAM :

Programmation & Développement : Alexandra Zaïnal
Conception & Développement : Baudouin d'Aumeries
Co-Programmation & Développement : Marc-Olivier Méhu
Soutien technique & logistique : Manuel Goepfert

Contact : metmap@orbifly.com




SOURCES & CREDITS :

   NOAA